Map

Track Data

SID SEASON NUMBER BASIN SUBBASIN NAME ISO_TIME NATURE LAT LON WMO_WIND WMO_PRES WMO_AGENCY TRACK_TYPE DIST2LAND LANDFALL IFLAG USA_AGENCY USA_ATCF_ID USA_LAT USA_LON USA_RECORD USA_STATUS USA_WIND USA_PRES USA_SSHS USA_R34_NE USA_R34_SE USA_R34_SW USA_R34_NW USA_R50_NE USA_R50_SE USA_R50_SW USA_R50_NW USA_R64_NE USA_R64_SE USA_R64_SW USA_R64_NW USA_POCI USA_ROCI USA_RMW USA_EYE TOKYO_LAT TOKYO_LON TOKYO_GRADE TOKYO_WIND TOKYO_PRES TOKYO_R50_DIR TOKYO_R50_LONG TOKYO_R50_SHORT TOKYO_R30_DIR TOKYO_R30_LONG TOKYO_R30_SHORT TOKYO_LAND CMA_LAT CMA_LON CMA_CAT CMA_WIND CMA_PRES HKO_LAT HKO_LON HKO_CAT HKO_WIND HKO_PRES NEWDELHI_LAT NEWDELHI_LON NEWDELHI_GRADE NEWDELHI_WIND NEWDELHI_PRES NEWDELHI_CI NEWDELHI_DP NEWDELHI_POCI REUNION_LAT REUNION_LON REUNION_TYPE REUNION_WIND REUNION_PRES REUNION_TNUM REUNION_CI REUNION_RMW REUNION_R34_NE REUNION_R34_SE REUNION_R34_SW REUNION_R34_NW REUNION_R50_NE REUNION_R50_SE REUNION_R50_SW REUNION_R50_NW REUNION_R64_NE REUNION_R64_SE REUNION_R64_SW REUNION_R64_NW BOM_LAT BOM_LON BOM_TYPE BOM_WIND BOM_PRES BOM_TNUM BOM_CI BOM_RMW BOM_R34_NE BOM_R34_SE BOM_R34_SW BOM_R34_NW BOM_R50_NE BOM_R50_SE BOM_R50_SW BOM_R50_NW BOM_R64_NE BOM_R64_SE BOM_R64_SW BOM_R64_NW BOM_ROCI BOM_POCI BOM_EYE BOM_POS_METHOD BOM_PRES_METHOD NADI_LAT NADI_LON NADI_CAT NADI_WIND NADI_PRES WELLINGTON_LAT WELLINGTON_LON WELLINGTON_WIND WELLINGTON_PRES DS824_LAT DS824_LON DS824_STAGE DS824_WIND DS824_PRES TD9636_LAT TD9636_LON TD9636_STAGE TD9636_WIND TD9636_PRES TD9635_LAT TD9635_LON TD9635_WIND TD9635_PRES TD9635_ROCI NEUMANN_LAT NEUMANN_LON NEUMANN_CLASS NEUMANN_WIND NEUMANN_PRES MLC_LAT MLC_LON MLC_CLASS MLC_WIND MLC_PRES USA_GUST BOM_GUST BOM_GUST_PER REUNION_GUST REUNION_GUST_PER USA_SEAHGT USA_SEARAD_NE USA_SEARAD_SE USA_SEARAD_SW USA_SEARAD_NW STORM_SPEED STORM_DIR
1918091S13064 1918 27 SI MM NOT_NAMED 1918-04-01 06:00:00 NR -12.9000 64.1000 reunion main 1055 1048 _____O________ -1 -12.9000 64.1000 99 9.90000 3 275
1918091S13064 1918 27 SI MM NOT_NAMED 1918-04-01 09:00:00 NR -12.8878 63.9425 main 1041 1035 _____P________ -1 -12.8878 63.9425 99 3 274
1918091S13064 1918 27 SI MM NOT_NAMED 1918-04-01 12:00:00 NR -12.8803 63.7726 main 1035 1022 _____P________ -1 -12.8803 63.7726 99 4 271
1918091S13064 1918 27 SI MM NOT_NAMED 1918-04-01 15:00:00 NR -12.8824 63.5782 main 1022 1009 _____P________ -1 -12.8824 63.5782 99 4 267
1918091S13064 1918 27 SI MM NOT_NAMED 1918-04-01 18:00:00 NR -12.8987 63.3467 main 1002 990 _____P________ -1 -12.8987 63.3467 99 5 264
1918091S13064 1918 27 SI MM NOT_NAMED 1918-04-01 21:00:00 NR -12.9341 63.0658 main 990 956 _____P________ -1 -12.9341 63.0658 99 6 261
1918091S13064 1918 27 SI MM NOT_NAMED 1918-04-02 00:00:00 NR -12.9931 62.7228 main 956 923 _____P________ -1 -12.9931 62.7228 99 8 259
1918091S13064 1918 27 SI MM NOT_NAMED 1918-04-02 03:00:00 NR -13.0802 62.3051 main 923 887 _____P________ -1 -13.0802 62.3051 99 9 257
1918091S13064 1918 27 SI MM NOT_NAMED 1918-04-02 06:00:00 NR -13.2000 61.8000 reunion main 887 847 _____O________ -1 -13.2000 61.8000 99 9.90000 11 256
1918091S13064 1918 27 SI MM NOT_NAMED 1918-04-02 09:00:00 NR -13.3546 61.2007 main 837 800 _____P________ -1 -13.3546 61.2007 99 13 255
1918091S13064 1918 27 SI MM NOT_NAMED 1918-04-02 12:00:00 NR -13.5377 60.5257 main 796 750 _____P________ -1 -13.5377 60.5257 99 14 254
1918091S13064 1918 27 SI MM NOT_NAMED 1918-04-02 15:00:00 NR -13.7414 59.7999 main 750 709 _____P________ -1 -13.7414 59.7999 99 15 254
1918091S13064 1918 27 SI MM NOT_NAMED 1918-04-02 18:00:00 NR -13.9576 59.0487 main 696 663 _____P________ -1 -13.9576 59.0487 99 15 253
1918091S13064 1918 27 SI MM NOT_NAMED 1918-04-02 21:00:00 NR -14.1788 58.2973 main 663 637 _____P________ -1 -14.1788 58.2973 99 15 253
1918091S13064 1918 27 SI MM NOT_NAMED 1918-04-03 00:00:00 NR -14.3976 57.5716 main 637 616 _____P________ -1 -14.3976 57.5716 99 14 252
1918091S13064 1918 27 SI MM NOT_NAMED 1918-04-03 03:00:00 NR -14.6069 56.8972 main 618 604 _____P________ -1 -14.6069 56.8972 99 13 252
1918091S13064 1918 27 SI MM NOT_NAMED 1918-04-03 06:00:00 NR -14.8000 56.3000 reunion main 606 581 _____O________ -1 -14.8000 56.3000 99 9.90000 10 252
1918091S13064 1918 27 SI MM NOT_NAMED 1918-04-03 09:00:00 NR -14.9345 55.8738 main 581 537 _____P________ -1 -14.9345 55.8738 99 8 251
1918091S13064 1918 27 SI MM NOT_NAMED 1918-04-03 12:00:00 NR -15.0554 55.5182 main 536 504 _____P________ -1 -15.0554 55.5182 99 7 250
1918091S13064 1918 27 SI MM NOT_NAMED 1918-04-03 15:00:00 NR -15.1683 55.2194 main 504 482 _____P________ -1 -15.1683 55.2194 99 6 247
1918091S13064 1918 27 SI MM NOT_NAMED 1918-04-03 18:00:00 NR -15.2786 54.9639 main 482 450 _____P________ -1 -15.2786 54.9639 99 5 244
1918091S13064 1918 27 SI MM NOT_NAMED 1918-04-03 21:00:00 NR -15.3918 54.7379 main 450 429 _____P________ -1 -15.3918 54.7379 99 5 241
1918091S13064 1918 27 SI MM NOT_NAMED 1918-04-04 00:00:00 NR -15.5129 54.5278 main 429 407 _____P________ -1 -15.5129 54.5278 99 5 238
1918091S13064 1918 27 SI MM NOT_NAMED 1918-04-04 03:00:00 NR -15.6473 54.3197 main 407 388 _____P________ -1 -15.6473 54.3197 99 5 235
1918091S13064 1918 27 SI MM NOT_NAMED 1918-04-04 06:00:00 NR -15.8000 54.1000 reunion main 388 368 _____O________ -1 -15.8000 54.1000 99 9.90000 6 234
1918091S13064 1918 27 SI MM NOT_NAMED 1918-04-04 09:00:00 NR -15.9748 53.8575 main 370 341 _____P________ -1 -15.9748 53.8575 99 6 233
1918091S13064 1918 27 SI MM NOT_NAMED 1918-04-04 12:00:00 NR -16.1700 53.5925 main 343 319 _____P________ -1 -16.1700 53.5925 99 7 232
1918091S13064 1918 27 SI MM NOT_NAMED 1918-04-04 15:00:00 NR -16.3826 53.3080 main 319 299 _____P________ -1 -16.3826 53.3080 99 7 232
1918091S13064 1918 27 SI MM NOT_NAMED 1918-04-04 18:00:00 NR -16.6095 53.0070 main 299 279 _____P________ -1 -16.6095 53.0070 99 8 232
1918091S13064 1918 27 SI MM NOT_NAMED 1918-04-04 21:00:00 NR -16.8477 52.6926 main 279 259 _____P________ -1 -16.8477 52.6926 99 8 232
1918091S13064 1918 27 SI MM NOT_NAMED 1918-04-05 00:00:00 NR -17.0942 52.3678 main 264 249 _____P________ -1 -17.0942 52.3678 99 8 232
1918091S13064 1918 27 SI MM NOT_NAMED 1918-04-05 03:00:00 NR -17.3459 52.0359 main 240 220 _____P________ -1 -17.3459 52.0359 99 8 232
1918091S13064 1918 27 SI MM NOT_NAMED 1918-04-05 06:00:00 NR -17.6000 51.7000 reunion main 220 _____O________ -1 -17.6000 51.7000 99 9.90000 8 231

About IBTrACS Database

This database is a web-friendly format of International Best Track Archive for Climate Stewardship (IBTrACS), a global best track data archive curated by NOAA dating back to 1842.

Updated: 2021-12-06